sensor_id;sensor_type;location;lat;lon;timestamp;temperature;humidity
23769;DHT22;12064;50.890;5.424;2022-11-20T00:00:43;23.00;72.30
23769;DHT22;12064;50.890;5.424;2022-11-20T00:09:34;23.00;72.20
23769;DHT22;12064;50.890;5.424;2022-11-20T00:18:25;22.80;72.30
23769;DHT22;12064;50.890;5.424;2022-11-20T00:27:17;22.80;72.50
23769;DHT22;12064;50.890;5.424;2022-11-20T00:36:14;22.70;72.40
23769;DHT22;12064;50.890;5.424;2022-11-20T00:45:07;22.70;72.40
23769;DHT22;12064;50.890;5.424;2022-11-20T00:53:58;22.70;72.40
23769;DHT22;12064;50.890;5.424;2022-11-20T01:02:50;22.80;72.10
23769;DHT22;12064;50.890;5.424;2022-11-20T01:11:44;22.70;72.20
23769;DHT22;12064;50.890;5.424;2022-11-20T01:20:36;22.60;72.20
23769;DHT22;12064;50.890;5.424;2022-11-20T01:29:26;22.50;72.30
23769;DHT22;12064;50.890;5.424;2022-11-20T01:38:20;21.90;74.20
23769;DHT22;12064;50.890;5.424;2022-11-20T01:47:16;21.70;75.50
23769;DHT22;12064;50.890;5.424;2022-11-20T01:56:09;21.70;75.20
23769;DHT22;12064;50.890;5.424;2022-11-20T02:14:26;22.60;72.20
23769;DHT22;12064;50.890;5.424;2022-11-20T02:32:53;22.70;71.40
23769;DHT22;12064;50.890;5.424;2022-11-20T02:41:44;22.50;72.00
23769;DHT22;12064;50.890;5.424;2022-11-20T02:50:39;22.50;71.90
23769;DHT22;12064;50.890;5.424;2022-11-20T02:59:30;22.50;72.00
23769;DHT22;12064;50.890;5.424;2022-11-20T03:08:20;22.40;72.20
23769;DHT22;12064;50.890;5.424;2022-11-20T03:17:11;22.30;72.20
23769;DHT22;12064;50.890;5.424;2022-11-20T03:26:16;22.20;72.40
23769;DHT22;12064;50.890;5.424;2022-11-20T03:35:10;22.20;72.30
23769;DHT22;12064;50.890;5.424;2022-11-20T03:44:05;22.20;72.50
23769;DHT22;12064;50.890;5.424;2022-11-20T03:52:56;21.70;74.20
23769;DHT22;12064;50.890;5.424;2022-11-20T04:01:47;21.50;75.10
23769;DHT22;12064;50.890;5.424;2022-11-20T04:10:37;21.80;74.30
23769;DHT22;12064;50.890;5.424;2022-11-20T04:19:29;22.10;73.30
23769;DHT22;12064;50.890;5.424;2022-11-20T04:28:20;22.50;71.80
23769;DHT22;12064;50.890;5.424;2022-11-20T04:37:11;22.50;71.30
23769;DHT22;12064;50.890;5.424;2022-11-20T04:46:01;22.50;71.40
23769;DHT22;12064;50.890;5.424;2022-11-20T04:54:52;21.60;74.60
23769;DHT22;12064;50.890;5.424;2022-11-20T05:03:44;21.70;74.20
23769;DHT22;12064;50.890;5.424;2022-11-20T05:12:34;22.10;73.70
23769;DHT22;12064;50.890;5.424;2022-11-20T05:21:25;22.30;73.20
23769;DHT22;12064;50.890;5.424;2022-11-20T05:30:16;22.70;72.30
23769;DHT22;12064;50.890;5.424;2022-11-20T05:39:06;22.80;72.80
23769;DHT22;12064;50.890;5.424;2022-11-20T05:47:59;23.00;73.40
23769;DHT22;12064;50.890;5.424;2022-11-20T05:56:51;23.40;72.90
23769;DHT22;12064;50.890;5.424;2022-11-20T06:05:42;24.10;70.90
23769;DHT22;12064;50.890;5.424;2022-11-20T06:14:33;24.20;71.10
23769;DHT22;12064;50.890;5.424;2022-11-20T06:23:23;24.80;69.70
23769;DHT22;12064;50.890;5.424;2022-11-20T06:32:14;24.80;69.60
23769;DHT22;12064;50.890;5.424;2022-11-20T06:41:06;24.80;69.90
23769;DHT22;12064;50.890;5.424;2022-11-20T06:49:57;24.90;69.90
23769;DHT22;12064;50.890;5.424;2022-11-20T06:58:50;25.10;69.80
23769;DHT22;12064;50.890;5.424;2022-11-20T07:07:41;24.90;70.50
23769;DHT22;12064;50.890;5.424;2022-11-20T07:16:36;25.00;70.30
23769;DHT22;12064;50.890;5.424;2022-11-20T07:25:27;25.10;70.00
23769;DHT22;12064;50.890;5.424;2022-11-20T07:34:18;25.10;70.10
23769;DHT22;12064;50.890;5.424;2022-11-20T07:43:10;24.30;71.60
23769;DHT22;12064;50.890;5.424;2022-11-20T07:52:04;23.50;73.50
23769;DHT22;12064;50.890;5.424;2022-11-20T08:00:54;22.90;75.30
23769;DHT22;12064;50.890;5.424;2022-11-20T08:09:45;22.70;75.50
23769;DHT22;12064;50.890;5.424;2022-11-20T08:18:36;22.50;75.60
23769;DHT22;12064;50.890;5.424;2022-11-20T08:27:26;22.40;75.40
23769;DHT22;12064;50.890;5.424;2022-11-20T08:36:17;22.30;74.90
23769;DHT22;12064;50.890;5.424;2022-11-20T08:45:08;22.70;73.90
23769;DHT22;12064;50.890;5.424;2022-11-20T08:54:01;22.70;73.50
23769;DHT22;12064;50.890;5.424;2022-11-20T09:02:54;22.80;74.00
23769;DHT22;12064;50.890;5.424;2022-11-20T09:11:44;23.20;72.40
23769;DHT22;12064;50.890;5.424;2022-11-20T09:20:35;24.10;69.50
23769;DHT22;12064;50.890;5.424;2022-11-20T09:29:26;24.40;69.20
23769;DHT22;12064;50.890;5.424;2022-11-20T09:38:17;23.50;70.40
23769;DHT22;12064;50.890;5.424;2022-11-20T09:47:13;22.90;72.60
23769;DHT22;12064;50.890;5.424;2022-11-20T09:56:09;22.60;73.40
23769;DHT22;12064;50.890;5.424;2022-11-20T10:14:42;22.20;74.20
23769;DHT22;12064;50.890;5.424;2022-11-20T10:32:46;22.40;73.40
23769;DHT22;12064;50.890;5.424;2022-11-20T10:41:41;22.50;74.10
23769;DHT22;12064;50.890;5.424;2022-11-20T10:50:31;23.50;73.10
23769;DHT22;12064;50.890;5.424;2022-11-20T11:08:28;24.40;69.60
23769;DHT22;12064;50.890;5.424;2022-11-20T11:26:22;24.30;69.80
23769;DHT22;12064;50.890;5.424;2022-11-20T11:35:22;24.60;69.20
23769;DHT22;12064;50.890;5.424;2022-11-20T11:53:40;24.80;69.70
23769;DHT22;12064;50.890;5.424;2022-11-20T12:11:45;24.00;71.30
23769;DHT22;12064;50.890;5.424;2022-11-20T12:20:45;23.60;71.60
23769;DHT22;12064;50.890;5.424;2022-11-20T12:39:56;22.40;74.70
23769;DHT22;12064;50.890;5.424;2022-11-20T12:48:43;22.40;74.70
23769;DHT22;12064;50.890;5.424;2022-11-20T13:06:51;22.40;74.30
23769;DHT22;12064;50.890;5.424;2022-11-20T13:24:51;22.20;74.70
23769;DHT22;12064;50.890;5.424;2022-11-20T13:33:44;22.10;74.70
23769;DHT22;12064;50.890;5.424;2022-11-20T13:42:54;22.20;74.40
23769;DHT22;12064;50.890;5.424;2022-11-20T13:51:47;22.70;73.20
23769;DHT22;12064;50.890;5.424;2022-11-20T14:01:09;22.60;73.10
23769;DHT22;12064;50.890;5.424;2022-11-20T14:09:58;22.60;73.20
23769;DHT22;12064;50.890;5.424;2022-11-20T14:18:51;22.60;72.80
23769;DHT22;12064;50.890;5.424;2022-11-20T14:27:53;22.70;72.50
23769;DHT22;12064;50.890;5.424;2022-11-20T14:36:45;22.70;72.50
23769;DHT22;12064;50.890;5.424;2022-11-20T14:45:36;22.50;72.80
23769;DHT22;12064;50.890;5.424;2022-11-20T14:54:52;22.30;73.40
23769;DHT22;12064;50.890;5.424;2022-11-20T15:03:43;22.60;72.70
23769;DHT22;12064;50.890;5.424;2022-11-20T15:12:48;22.70;72.40
23769;DHT22;12064;50.890;5.424;2022-11-20T15:21:40;22.60;72.60
23769;DHT22;12064;50.890;5.424;2022-11-20T15:30:30;22.50;73.10
23769;DHT22;12064;50.890;5.424;2022-11-20T15:39:21;22.70;72.60
23769;DHT22;12064;50.890;5.424;2022-11-20T15:48:35;22.70;72.30
23769;DHT22;12064;50.890;5.424;2022-11-20T15:57:26;22.60;72.50
23769;DHT22;12064;50.890;5.424;2022-11-20T16:06:17;22.60;72.70
23769;DHT22;12064;50.890;5.424;2022-11-20T16:15:08;22.30;73.20
23769;DHT22;12064;50.890;5.424;2022-11-20T16:24:18;22.20;73.60
23769;DHT22;12064;50.890;5.424;2022-11-20T16:33:11;22.10;73.80
23769;DHT22;12064;50.890;5.424;2022-11-20T16:42:05;22.20;73.80
23769;DHT22;12064;50.890;5.424;2022-11-20T16:50:56;22.30;73.30
23769;DHT22;12064;50.890;5.424;2022-11-20T16:59:47;22.50;73.40
23769;DHT22;12064;50.890;5.424;2022-11-20T17:08:38;23.00;72.60
23769;DHT22;12064;50.890;5.424;2022-11-20T17:17:29;23.70;71.30
23769;DHT22;12064;50.890;5.424;2022-11-20T17:26:22;24.20;69.20
23769;DHT22;12064;50.890;5.424;2022-11-20T17:35:13;24.30;68.30
23769;DHT22;12064;50.890;5.424;2022-11-20T17:44:08;23.10;72.10
23769;DHT22;12064;50.890;5.424;2022-11-20T17:52:59;22.70;73.30
23769;DHT22;12064;50.890;5.424;2022-11-20T18:01:53;22.70;73.30
23769;DHT22;12064;50.890;5.424;2022-11-20T18:10:46;22.80;74.30
23769;DHT22;12064;50.890;5.424;2022-11-20T18:19:45;24.20;70.30
23769;DHT22;12064;50.890;5.424;2022-11-20T18:28:40;24.10;70.90
23769;DHT22;12064;50.890;5.424;2022-11-20T18:37:31;24.40;70.60
23769;DHT22;12064;50.890;5.424;2022-11-20T18:46:21;23.80;71.70
23769;DHT22;12064;50.890;5.424;2022-11-20T18:55:12;23.10;73.70
23769;DHT22;12064;50.890;5.424;2022-11-20T19:04:07;22.90;74.40
23769;DHT22;12064;50.890;5.424;2022-11-20T19:12:58;22.70;75.60
23769;DHT22;12064;50.890;5.424;2022-11-20T19:21:50;22.60;75.00
23769;DHT22;12064;50.890;5.424;2022-11-20T19:30:44;22.90;74.00
23769;DHT22;12064;50.890;5.424;2022-11-20T19:39:35;23.00;73.50
23769;DHT22;12064;50.890;5.424;2022-11-20T19:48:30;22.90;73.70
23769;DHT22;12064;50.890;5.424;2022-11-20T19:57:20;22.90;74.00
23769;DHT22;12064;50.890;5.424;2022-11-20T20:06:13;22.70;74.40
23769;DHT22;12064;50.890;5.424;2022-11-20T20:15:05;22.80;74.00
23769;DHT22;12064;50.890;5.424;2022-11-20T20:23:57;22.90;73.70
23769;DHT22;12064;50.890;5.424;2022-11-20T20:32:48;23.00;73.20
23769;DHT22;12064;50.890;5.424;2022-11-20T20:41:38;23.00;73.50
23769;DHT22;12064;50.890;5.424;2022-11-20T20:50:30;22.70;73.90
23769;DHT22;12064;50.890;5.424;2022-11-20T20:59:21;22.60;74.40
23769;DHT22;12064;50.890;5.424;2022-11-20T21:08:12;22.90;73.30
23769;DHT22;12064;50.890;5.424;2022-11-20T21:26:54;22.80;73.70
23769;DHT22;12064;50.890;5.424;2022-11-20T21:35:44;22.40;74.60
23769;DHT22;12064;50.890;5.424;2022-11-20T21:44:38;22.50;74.40
23769;DHT22;12064;50.890;5.424;2022-11-20T21:53:28;22.40;74.30
23769;DHT22;12064;50.890;5.424;2022-11-20T22:02:19;22.30;74.30
23769;DHT22;12064;50.890;5.424;2022-11-20T22:11:18;22.30;74.40
23769;DHT22;12064;50.890;5.424;2022-11-20T22:20:10;22.60;73.30
23769;DHT22;12064;50.890;5.424;2022-11-20T22:29:01;22.80;72.20
23769;DHT22;12064;50.890;5.424;2022-11-20T22:37:54;23.20;70.60
23769;DHT22;12064;50.890;5.424;2022-11-20T22:46:45;23.40;70.30
23769;DHT22;12064;50.890;5.424;2022-11-20T22:55:36;23.10;70.50
23769;DHT22;12064;50.890;5.424;2022-11-20T23:04:26;23.00;70.90
23769;DHT22;12064;50.890;5.424;2022-11-20T23:13:17;22.40;73.10
23769;DHT22;12064;50.890;5.424;2022-11-20T23:22:07;22.30;73.40
23769;DHT22;12064;50.890;5.424;2022-11-20T23:30:58;22.50;72.50
23769;DHT22;12064;50.890;5.424;2022-11-20T23:39:50;22.90;71.30
23769;DHT22;12064;50.890;5.424;2022-11-20T23:48:46;23.20;70.20
23769;DHT22;12064;50.890;5.424;2022-11-20T23:57:39;23.10;70.20
